createdAt,value
2022-09-21T00:01:05.393Z,99882.75
2022-09-21T00:03:32.939Z,99882.75
2022-09-21T00:06:06.972Z,99881.91
2022-09-21T00:08:34.618Z,99890.56
2022-09-21T00:11:02.188Z,99886.75
2022-09-21T00:13:29.844Z,99884.19
2022-09-21T00:15:57.372Z,99893.94
2022-09-21T00:18:25.003Z,99890.91
2022-09-21T00:20:55.202Z,99893.94
2022-09-21T00:23:23.834Z,99892.09
2022-09-21T00:25:51.116Z,99886.06
2022-09-21T00:28:18.300Z,99880.03
2022-09-21T00:30:45.908Z,99888.41
2022-09-21T00:33:13.148Z,99888.84
2022-09-21T00:35:41.337Z,99891.09
2022-09-21T00:38:08.776Z,99889.88
2022-09-21T00:40:36.458Z,99888.63
2022-09-21T00:43:13.778Z,99886.37
2022-09-21T00:45:41.346Z,99891.66
2022-09-21T00:48:08.576Z,99883.34
2022-09-21T00:50:36.151Z,99885.63
2022-09-21T00:53:03.720Z,99888.09
2022-09-21T00:55:34.238Z,99895.53
2022-09-21T00:58:03.487Z,99898.75
2022-09-21T01:00:30.967Z,99892.75
2022-09-21T01:03:01.444Z,99897.75
2022-09-21T01:05:29.053Z,99900.19
2022-09-21T01:07:57.297Z,99899.59
2022-09-21T01:10:25.897Z,99900.75
2022-09-21T01:13:14.143Z,99909.25
2022-09-21T01:16:20.506Z,99907.94
2022-09-21T01:18:51.795Z,99903.91
2022-09-21T01:21:20.348Z,99902.31
2022-09-21T01:24:02.937Z,99908.56
2022-09-21T01:26:36.394Z,99910.53
2022-09-21T01:29:17.069Z,99914.09
2022-09-21T01:31:55.240Z,99911.31
2022-09-21T01:34:34.483Z,99906.62
2022-09-21T01:37:03.473Z,99908.87
2022-09-21T01:39:30.674Z,99905.06
2022-09-21T01:41:57.845Z,99905.56
2022-09-21T01:44:27.287Z,99918.97
2022-09-21T01:46:54.588Z,99908.94
2022-09-21T01:49:23.279Z,99914.38
2022-09-21T01:51:52.084Z,99916.06
2022-09-21T01:54:22.098Z,99918.09
2022-09-21T01:57:09.527Z,99912.66
2022-09-21T01:59:37.217Z,99921.59
2022-09-21T02:02:15.515Z,99920.62
2022-09-21T02:04:43.024Z,99906.94
2022-09-21T02:07:10.228Z,99927.19
2022-09-21T02:09:37.494Z,99920.97
2022-09-21T02:12:05.575Z,99924.03
2022-09-21T02:14:33.480Z,99916.53
2022-09-21T02:17:07.475Z,99921.38
2022-09-21T02:19:56.729Z,99918.41
2022-09-21T02:22:32.047Z,99922.22
2022-09-21T02:25:05.560Z,99927.22
2022-09-21T02:27:46.023Z,99926.09
2022-09-21T02:30:14.656Z,99930.97
2022-09-21T02:32:49.152Z,99930.13
2022-09-21T02:35:32.000Z,99932.66
2022-09-21T02:38:03.697Z,99927.91
2022-09-21T02:40:31.441Z,99928.44
2022-09-21T02:42:59.773Z,99929.53
2022-09-21T02:45:27.948Z,99928.75
2022-09-21T02:48:03.647Z,99934.66
2022-09-21T02:50:57.122Z,99932.31
2022-09-21T02:53:25.980Z,99931.81
2022-09-21T02:55:56.471Z,99932.63
2022-09-21T02:58:24.646Z,99934.00
2022-09-21T03:00:52.103Z,99931.31
2022-09-21T03:03:20.662Z,99937.63
2022-09-21T03:05:48.699Z,99934.50
2022-09-21T03:08:16.583Z,99941.84
2022-09-21T03:10:43.841Z,99943.88
2022-09-21T03:13:11.101Z,99946.78
2022-09-21T03:15:39.171Z,99939.00
2022-09-21T03:18:07.900Z,99948.06
2022-09-21T03:20:35.734Z,99955.22
2022-09-21T03:23:03.227Z,99953.06
2022-09-21T03:25:31.011Z,99958.31
2022-09-21T03:27:58.576Z,99951.81
2022-09-21T03:30:26.556Z,99962.69
2022-09-21T03:32:53.758Z,99959.00
2022-09-21T03:35:21.805Z,99956.56
2022-09-21T03:37:49.593Z,99949.44
2022-09-21T03:40:17.170Z,99956.53
2022-09-21T03:42:44.378Z,99957.78
2022-09-21T03:45:12.112Z,99956.69
2022-09-21T03:47:39.503Z,99951.34
2022-09-21T03:50:10.028Z,99961.53
2022-09-21T03:52:38.537Z,99963.72
2022-09-21T03:55:06.653Z,99963.00
2022-09-21T03:57:34.480Z,99967.66
2022-09-21T04:00:04.025Z,99963.69
2022-09-21T04:02:32.125Z,99968.59
2022-09-21T04:05:00.112Z,99969.47
2022-09-21T04:07:30.224Z,99972.13
2022-09-21T04:09:57.407Z,99966.38
2022-09-21T04:12:24.848Z,99967.97
2022-09-21T04:14:52.125Z,99974.00
2022-09-21T04:17:19.392Z,99974.94
2022-09-21T04:19:47.866Z,99979.75
2022-09-21T04:22:15.056Z,99983.97
2022-09-21T04:24:42.285Z,99986.69
2022-09-21T04:27:10.137Z,99987.56
2022-09-21T04:29:37.639Z,99995.03
2022-09-21T04:32:05.139Z,99988.00
2022-09-21T04:34:32.657Z,99993.00
2022-09-21T04:36:59.946Z,99989.84
2022-09-21T04:39:27.098Z,99987.88
2022-09-21T04:41:54.675Z,99985.28
2022-09-21T04:44:22.064Z,99995.84
2022-09-21T04:46:49.237Z,99999.63
2022-09-21T04:49:16.700Z,99999.47
2022-09-21T04:51:43.917Z,99993.34
2022-09-21T04:54:11.107Z,99994.00
2022-09-21T04:56:38.559Z,99996.28
2022-09-21T04:59:05.825Z,100005.31
2022-09-21T05:01:33.093Z,100007.91
2022-09-21T05:04:02.525Z,100012.66
2022-09-21T05:06:30.263Z,100015.97
2022-09-21T05:09:16.063Z,100015.09
2022-09-21T05:11:43.596Z,100012.72
2022-09-21T05:14:11.047Z,100007.22
2022-09-21T05:16:38.422Z,100022.06
2022-09-21T05:19:06.051Z,100020.63
2022-09-21T05:21:33.381Z,100020.84
2022-09-21T05:24:00.666Z,100013.03
2022-09-21T05:26:28.209Z,100018.03
2022-09-21T05:28:55.646Z,100013.75
2022-09-21T05:31:37.673Z,100022.75
2022-09-21T05:34:17.600Z,100017.97
2022-09-21T05:36:47.934Z,100024.00
2022-09-21T05:39:15.528Z,100019.63
2022-09-21T05:41:42.882Z,100025.94
2022-09-21T05:44:14.350Z,100031.81
2022-09-21T05:46:42.905Z,100025.88
2022-09-21T05:49:15.018Z,100027.81
2022-09-21T05:51:51.633Z,100025.25
2022-09-21T05:54:21.021Z,100032.22
2022-09-21T05:56:53.939Z,100023.53
2022-09-21T05:59:33.277Z,100027.31
2022-09-21T06:02:04.911Z,100031.94
2022-09-21T06:04:32.580Z,100027.19
2022-09-21T06:06:59.806Z,100037.81
2022-09-21T06:09:27.956Z,100036.59
2022-09-21T06:11:55.448Z,100039.88
2022-09-21T06:14:25.656Z,100036.94
2022-09-21T06:16:53.027Z,100047.44
2022-09-21T06:19:20.640Z,100039.38
2022-09-21T06:21:48.176Z,100035.12
2022-09-21T06:24:15.425Z,100042.91
2022-09-21T06:26:43.111Z,100045.94
2022-09-21T06:29:10.370Z,100041.81
2022-09-21T06:31:37.653Z,100044.78
2022-09-21T06:34:05.190Z,100043.59
2022-09-21T06:36:32.516Z,100045.94
2022-09-21T06:38:59.717Z,100044.69
2022-09-21T06:41:27.186Z,100055.06
2022-09-21T06:43:55.600Z,100046.69
2022-09-21T06:46:22.859Z,100051.75
2022-09-21T06:48:50.571Z,100050.87
2022-09-21T06:51:17.812Z,100051.50
2022-09-21T06:53:45.138Z,100062.62
2022-09-21T06:56:12.617Z,100060.28
2022-09-21T06:58:39.874Z,100071.66
2022-09-21T07:01:07.750Z,100061.88
2022-09-21T07:03:35.467Z,100063.44
2022-09-21T07:06:02.678Z,100069.81
2022-09-21T07:11:17.436Z,100074.47
2022-09-21T07:13:45.517Z,100080.09
2022-09-21T07:16:13.303Z,100078.00
2022-09-21T07:18:44.357Z,100070.53
2022-09-21T07:21:12.044Z,100074.69
2022-09-21T07:23:39.256Z,100072.13
2022-09-21T07:26:08.192Z,100082.62
2022-09-21T07:28:35.790Z,100090.44
2022-09-21T07:31:10.795Z,100087.59
2022-09-21T07:33:38.258Z,100081.84
2022-09-21T07:36:10.366Z,100078.38
2022-09-21T07:38:39.561Z,100088.41
2022-09-21T07:41:07.278Z,100090.63
2022-09-21T07:43:34.766Z,100089.78
2022-09-21T07:46:02.369Z,100087.09
2022-09-21T07:48:30.400Z,100093.31
2022-09-21T07:51:07.648Z,100083.75
2022-09-21T07:53:38.994Z,100091.34
2022-09-21T07:56:07.136Z,100095.19
2022-09-21T07:58:54.070Z,100090.28
2022-09-21T08:01:21.398Z,100087.47
2022-09-21T08:03:52.324Z,100085.56
2022-09-21T08:06:19.633Z,100085.56
2022-09-21T08:08:48.048Z,100084.91
2022-09-21T08:11:16.417Z,100098.16
2022-09-21T08:13:43.860Z,100091.28
2022-09-21T08:16:11.387Z,100096.12
2022-09-21T08:18:39.751Z,100094.91
2022-09-21T08:21:07.421Z,100095.41
2022-09-21T08:23:34.874Z,100085.59
2022-09-21T08:26:03.258Z,100086.56
2022-09-21T08:28:31.262Z,100093.31
2022-09-21T08:31:02.246Z,100101.25
2022-09-21T08:33:30.015Z,100101.09
2022-09-21T08:35:58.327Z,100085.34
2022-09-21T08:38:25.946Z,100093.19
2022-09-21T08:40:53.550Z,100090.25
2022-09-21T08:43:29.901Z,100093.59
2022-09-21T08:45:57.452Z,100084.56
2022-09-21T08:48:29.970Z,100097.66
2022-09-21T08:50:59.830Z,100092.25
2022-09-21T08:53:33.773Z,100097.66
2022-09-21T08:56:02.858Z,100090.75
2022-09-21T08:58:31.197Z,100100.25
2022-09-21T09:01:17.482Z,100091.66
2022-09-21T09:03:52.017Z,100102.63
2022-09-21T09:06:48.801Z,100097.06
2022-09-21T09:09:39.701Z,100101.78
2022-09-21T09:12:16.654Z,100106.16
2022-09-21T09:14:56.126Z,100108.13
2022-09-21T09:17:26.882Z,100091.66
2022-09-21T09:19:56.129Z,100101.59
2022-09-21T09:22:34.479Z,100104.00
2022-09-21T09:25:03.868Z,100099.34
2022-09-21T09:27:35.345Z,100091.25
2022-09-21T09:30:05.235Z,100086.16
2022-09-21T09:32:45.486Z,100088.69
2022-09-21T09:35:39.137Z,100090.97
2022-09-21T09:38:19.753Z,100095.22
2022-09-21T09:41:06.845Z,100096.38
2022-09-21T09:43:40.206Z,100088.13
2022-09-21T09:46:11.195Z,100085.97
2022-09-21T09:48:58.920Z,100085.72
2022-09-21T09:51:26.999Z,100089.97
2022-09-21T09:53:54.293Z,100091.84
2022-09-21T09:56:21.522Z,100088.75
2022-09-21T09:58:57.473Z,100087.78
2022-09-21T10:01:36.968Z,100092.09
2022-09-21T10:04:05.937Z,100089.25
2022-09-21T10:06:33.440Z,100083.88
2022-09-21T10:09:00.899Z,100083.22
2022-09-21T10:11:35.707Z,100076.41
2022-09-21T10:14:14.740Z,100076.88
2022-09-21T10:16:42.356Z,100076.62
2022-09-21T10:19:16.882Z,100072.19
2022-09-21T10:21:48.805Z,100077.22
2022-09-21T10:24:19.133Z,100068.72
2022-09-21T10:26:49.384Z,100074.13
2022-09-21T10:29:22.702Z,100078.63
2022-09-21T10:32:14.845Z,100068.34
2022-09-21T10:35:00.089Z,100060.47
2022-09-21T10:37:29.246Z,100046.69
2022-09-21T10:39:57.241Z,100052.56
2022-09-21T10:42:24.462Z,100058.13
2022-09-21T10:45:05.324Z,100050.28
2022-09-21T10:47:34.601Z,100056.34
2022-09-21T10:50:02.857Z,100054.78
2022-09-21T10:52:37.631Z,100056.72
2022-09-21T10:55:05.756Z,100061.56
2022-09-21T10:57:33.153Z,100049.16
2022-09-21T11:00:35.705Z,100053.44
2022-09-21T11:03:05.459Z,100049.31
2022-09-21T11:05:38.912Z,100041.31
2022-09-21T11:08:09.854Z,100046.25
2022-09-21T11:10:43.352Z,100044.19
2022-09-21T11:13:17.875Z,100050.13
2022-09-21T11:15:52.780Z,100048.50
2022-09-21T11:18:22.452Z,100040.13
2022-09-21T11:20:51.443Z,100040.19
2022-09-21T11:23:18.659Z,100036.53
2022-09-21T11:26:04.768Z,100041.91
2022-09-21T11:28:40.877Z,100046.53
2022-09-21T11:31:23.696Z,100033.41
2022-09-21T11:34:10.501Z,100039.56
2022-09-21T11:36:38.294Z,100039.34
2022-09-21T11:39:32.276Z,100033.94
2022-09-21T11:42:00.707Z,100026.38
2022-09-21T11:44:28.058Z,100036.72
2022-09-21T11:46:59.300Z,100023.84
2022-09-21T11:49:29.999Z,100020.59
2022-09-21T11:52:16.143Z,100017.88
2022-09-21T11:55:02.245Z,100023.16
2022-09-21T11:57:38.742Z,100015.00
2022-09-21T12:00:11.565Z,100019.34
2022-09-21T12:05:33.962Z,100005.94
2022-09-21T12:08:04.591Z,100001.44
2022-09-21T12:10:50.403Z,100002.94
2022-09-21T12:13:20.851Z,100010.31
2022-09-21T12:15:55.541Z,100012.38
2022-09-21T12:18:27.473Z,100006.87
2022-09-21T12:21:14.927Z,100000.69
2022-09-21T12:23:43.990Z,99996.59
2022-09-21T12:26:12.226Z,99991.56
2022-09-21T12:28:40.819Z,99999.44
2022-09-21T12:31:29.197Z,99986.44
2022-09-21T12:33:57.956Z,99985.22
2022-09-21T12:36:25.429Z,99988.22
2022-09-21T12:38:59.230Z,99986.09
2022-09-21T12:41:30.004Z,99992.25
2022-09-21T12:44:00.669Z,99987.56
2022-09-21T12:46:28.193Z,99991.28
2022-09-21T12:48:55.440Z,99996.50
2022-09-21T12:51:29.357Z,99999.47
2022-09-21T12:53:58.385Z,100003.31
2022-09-21T12:56:35.702Z,99996.56
2022-09-21T12:59:09.609Z,99995.03
2022-09-21T13:01:47.549Z,100002.56
2022-09-21T13:04:28.165Z,99989.59
2022-09-21T13:07:02.073Z,99984.84
2022-09-21T13:09:29.575Z,99978.72
2022-09-21T13:11:57.812Z,99988.91
2022-09-21T13:14:25.407Z,99983.94
2022-09-21T13:16:53.866Z,99973.00
2022-09-21T13:19:21.943Z,99968.97
2022-09-21T13:22:08.519Z,99970.09
2022-09-21T13:24:36.001Z,99967.53
2022-09-21T13:27:07.581Z,99959.66
2022-09-21T13:29:36.112Z,99957.16
2022-09-21T13:32:04.442Z,99958.47
2022-09-21T13:34:36.144Z,99949.38
2022-09-21T13:37:17.439Z,99952.28
2022-09-21T13:39:45.192Z,99943.59
2022-09-21T13:42:31.205Z,99954.31
2022-09-21T13:44:58.952Z,99954.94
2022-09-21T13:47:30.736Z,99949.28
2022-09-21T13:50:00.701Z,99942.56
2022-09-21T13:52:30.108Z,99944.06
2022-09-21T13:54:58.684Z,99939.69
2022-09-21T13:57:27.096Z,99947.69
2022-09-21T14:00:21.095Z,99938.72
2022-09-21T14:02:55.408Z,99936.12
2022-09-21T14:05:23.483Z,99941.09
2022-09-21T14:07:55.339Z,99939.81
2022-09-21T14:10:22.585Z,99949.25
2022-09-21T14:12:49.778Z,99956.19
2022-09-21T14:15:19.418Z,99956.72
2022-09-21T14:18:07.834Z,99966.62
2022-09-21T14:20:39.513Z,99963.63
2022-09-21T14:23:20.039Z,99969.00
2022-09-21T14:25:51.775Z,99964.63
2022-09-21T14:28:26.608Z,99957.47
2022-09-21T14:30:58.404Z,99956.19
2022-09-21T14:33:30.417Z,99959.88
2022-09-21T14:35:57.970Z,99951.53
2022-09-21T14:38:28.424Z,99956.13
2022-09-21T14:41:03.306Z,99960.78
2022-09-21T14:43:33.865Z,99967.53
2022-09-21T14:46:01.407Z,99967.38
2022-09-21T14:48:30.538Z,99971.72
2022-09-21T14:51:18.543Z,99960.38
2022-09-21T14:54:00.987Z,99962.03
2022-09-21T14:56:30.728Z,99956.41
2022-09-21T14:59:04.283Z,99958.19
2022-09-21T15:01:31.825Z,99955.13
2022-09-21T15:04:03.150Z,99957.69
2022-09-21T15:06:52.014Z,99958.41
2022-09-21T15:09:57.470Z,99961.16
2022-09-21T15:12:27.605Z,99960.59
2022-09-21T15:15:21.571Z,99954.13
2022-09-21T15:17:59.254Z,99949.34
2022-09-21T15:20:28.185Z,99947.03
2022-09-21T15:22:55.962Z,99949.84
2022-09-21T15:25:23.438Z,99945.91
2022-09-21T15:27:51.767Z,99951.66
2022-09-21T15:30:24.386Z,99958.00
2022-09-21T15:32:53.204Z,99951.28
2022-09-21T15:35:21.318Z,99957.56
2022-09-21T15:37:48.658Z,99951.28
2022-09-21T15:40:17.770Z,99955.81
2022-09-21T15:43:01.096Z,99955.50
2022-09-21T15:45:28.963Z,99961.72
2022-09-21T15:47:58.077Z,99962.00
2022-09-21T15:50:25.326Z,99965.13
2022-09-21T15:52:54.844Z,99970.28
2022-09-21T15:55:22.166Z,99979.41
2022-09-21T15:57:50.207Z,99985.50
2022-09-21T16:00:18.949Z,99968.19
2022-09-21T16:02:51.407Z,99978.19
2022-09-21T16:05:19.881Z,99977.53
2022-09-21T16:07:47.707Z,99988.13
2022-09-21T16:10:29.935Z,99986.28
2022-09-21T16:13:01.153Z,99993.22
2022-09-21T16:15:30.103Z,99987.22
2022-09-21T16:18:01.940Z,99997.84
2022-09-21T16:20:44.284Z,100001.38
2022-09-21T16:23:13.967Z,100002.25
2022-09-21T16:25:43.023Z,99995.25
2022-09-21T16:28:16.394Z,99998.59
2022-09-21T16:30:44.817Z,100004.91
2022-09-21T16:33:30.986Z,100002.53
2022-09-21T16:35:58.862Z,100000.22
2022-09-21T16:38:26.402Z,100001.00
2022-09-21T16:40:54.789Z,100001.06
2022-09-21T16:43:24.268Z,100001.69
2022-09-21T16:45:51.515Z,100011.94
2022-09-21T16:48:18.946Z,100008.56
2022-09-21T16:50:46.865Z,100008.34
2022-09-21T16:53:14.139Z,100008.50
2022-09-21T16:55:42.906Z,100009.72
2022-09-21T16:58:10.907Z,100007.19
2022-09-21T17:00:39.569Z,100009.66
2022-09-21T17:03:06.897Z,100019.41
2022-09-21T17:05:34.354Z,100016.81
2022-09-21T17:08:01.670Z,100021.06
2022-09-21T17:10:30.981Z,100020.16
2022-09-21T17:12:59.263Z,100020.34
2022-09-21T17:15:28.531Z,100018.69
2022-09-21T17:17:58.123Z,100023.63
2022-09-21T17:20:35.910Z,100026.75
2022-09-21T17:23:03.546Z,100020.06
2022-09-21T17:25:32.813Z,100024.31
2022-09-21T17:28:00.544Z,100034.59
2022-09-21T17:30:29.135Z,100039.81
2022-09-21T17:32:58.308Z,100037.78
2022-09-21T17:35:40.046Z,100037.47
2022-09-21T17:38:12.601Z,100047.28
2022-09-21T17:40:42.946Z,100040.31
2022-09-21T17:43:13.725Z,100042.25
2022-09-21T17:45:42.386Z,100042.66
2022-09-21T17:48:13.179Z,100058.88
2022-09-21T17:50:42.055Z,100057.03
2022-09-21T17:53:28.444Z,100057.75
2022-09-21T17:56:01.100Z,100054.16
2022-09-21T17:58:38.339Z,100060.06
2022-09-21T18:01:26.313Z,100062.12
2022-09-21T18:03:57.587Z,100073.34
2022-09-21T18:06:25.930Z,100074.09
2022-09-21T18:08:54.238Z,100085.41
2022-09-21T18:11:27.783Z,100073.44
2022-09-21T18:14:01.095Z,100083.09
2022-09-21T18:16:28.664Z,100083.88
2022-09-21T18:19:02.555Z,100082.66
2022-09-21T18:21:31.882Z,100079.09
2022-09-21T18:24:02.192Z,100084.31
2022-09-21T18:26:33.165Z,100088.03
2022-09-21T18:29:12.557Z,100087.53
2022-09-21T18:32:08.225Z,100093.72
2022-09-21T18:34:55.234Z,100086.06
2022-09-21T18:37:35.849Z,100082.38
2022-09-21T18:40:09.167Z,100096.12
2022-09-21T18:42:42.404Z,100088.84
2022-09-21T18:45:17.365Z,100091.16
2022-09-21T18:47:46.230Z,100092.28
2022-09-21T18:50:16.848Z,100088.41
2022-09-21T18:52:50.151Z,100086.94
2022-09-21T18:55:23.681Z,100089.88
2022-09-21T18:57:51.617Z,100094.50
2022-09-21T19:00:19.661Z,100092.81
2022-09-21T19:03:12.232Z,100095.25
2022-09-21T19:05:34.745Z,100087.25
2022-09-21T19:08:10.935Z,100099.22
2022-09-21T19:10:39.405Z,100097.87
2022-09-21T19:13:13.115Z,100095.41
2022-09-21T19:15:59.888Z,100096.12
2022-09-21T19:18:34.970Z,100088.97
2022-09-21T19:21:08.878Z,100096.34
2022-09-21T19:23:51.768Z,100086.22
2022-09-21T19:26:31.346Z,100094.94
2022-09-21T19:29:17.522Z,100098.03
2022-09-21T19:31:45.141Z,100099.06
2022-09-21T19:34:14.771Z,100096.62
2022-09-21T19:36:42.512Z,100096.50
2022-09-21T19:39:10.875Z,100096.50
2022-09-21T19:41:41.650Z,100098.50
2022-09-21T19:44:29.791Z,100101.31
2022-09-21T19:47:06.561Z,100094.34
2022-09-21T19:49:41.417Z,100099.34
2022-09-21T19:52:08.959Z,100097.91
2022-09-21T19:54:55.004Z,100088.84
2022-09-21T19:57:41.376Z,100087.56
2022-09-21T20:00:09.934Z,100086.94
2022-09-21T20:02:59.236Z,100088.69
2022-09-21T20:05:34.358Z,100084.44
2022-09-21T20:08:10.986Z,100083.59
2022-09-21T20:10:42.248Z,100089.84
2022-09-21T20:13:21.860Z,100088.97
2022-09-21T20:15:54.069Z,100087.72
2022-09-21T20:18:21.579Z,100087.72
2022-09-21T20:20:48.849Z,100091.37
2022-09-21T20:23:16.199Z,100098.78
2022-09-21T20:25:54.102Z,100093.25
2022-09-21T20:28:22.044Z,100091.84
2022-09-21T20:30:50.349Z,100086.72
2022-09-21T20:33:21.385Z,100095.66
2022-09-21T20:35:48.960Z,100097.09
2022-09-21T20:38:17.963Z,100094.09
2022-09-21T20:40:45.468Z,100100.78
2022-09-21T20:43:14.200Z,100107.03
2022-09-21T20:45:48.090Z,100111.00
2022-09-21T20:48:15.748Z,100107.88
2022-09-21T20:50:44.518Z,100102.47
2022-09-21T20:53:12.570Z,100099.34
2022-09-21T20:55:41.052Z,100108.25
2022-09-21T20:58:11.035Z,100104.19
2022-09-21T21:00:38.304Z,100098.53
2022-09-21T21:03:05.580Z,100087.09
2022-09-21T21:05:33.141Z,100093.75
2022-09-21T21:08:00.326Z,100101.63
2022-09-21T21:10:27.649Z,100094.75
2022-09-21T21:12:55.382Z,100092.53
2022-09-21T21:15:22.650Z,100087.72
2022-09-21T21:17:49.872Z,100092.53
2022-09-21T21:20:17.406Z,100094.00
2022-09-21T21:22:45.118Z,100088.16
2022-09-21T21:25:12.330Z,100091.78
2022-09-21T21:27:39.909Z,100090.81
2022-09-21T21:30:07.841Z,100087.94
2022-09-21T21:32:35.402Z,100086.72
2022-09-21T21:35:03.014Z,100087.22
2022-09-21T21:37:30.312Z,100084.06
2022-09-21T21:39:57.726Z,100086.91
2022-09-21T21:42:25.549Z,100080.34
2022-09-21T21:44:52.755Z,100086.81
2022-09-21T21:47:39.750Z,100084.47
2022-09-21T21:50:07.715Z,100079.78
2022-09-21T21:52:34.902Z,100082.25
2022-09-21T21:55:02.546Z,100084.44
2022-09-21T21:57:30.227Z,100082.59
2022-09-21T21:59:57.509Z,100084.31
2022-09-21T22:02:24.842Z,100084.81
2022-09-21T22:04:52.729Z,100093.16
2022-09-21T22:07:19.978Z,100093.16
2022-09-21T22:09:47.639Z,100087.81
2022-09-21T22:12:15.687Z,100085.19
2022-09-21T22:14:46.198Z,100079.22
2022-09-21T22:17:13.506Z,100083.34
2022-09-21T22:19:41.063Z,100076.44
2022-09-21T22:22:08.936Z,100076.62
2022-09-21T22:24:36.176Z,100078.31
2022-09-21T22:27:03.809Z,100070.69
2022-09-21T22:29:31.028Z,100076.88
2022-09-21T22:31:58.364Z,100077.84
2022-09-21T22:34:26.025Z,100082.19
2022-09-21T22:36:53.873Z,100074.75
2022-09-21T22:39:21.371Z,100071.25
2022-09-21T22:41:48.899Z,100080.22
2022-09-21T22:44:16.085Z,100076.25
2022-09-21T22:46:43.326Z,100077.72
2022-09-21T22:49:10.815Z,100081.66
2022-09-21T22:51:38.196Z,100074.78
2022-09-21T22:54:05.585Z,100069.38
2022-09-21T22:56:33.351Z,100067.69
2022-09-21T22:59:01.567Z,100063.16
2022-09-21T23:01:36.257Z,100059.22
2022-09-21T23:04:05.138Z,100062.84
2022-09-21T23:06:33.623Z,100062.19
2022-09-21T23:09:02.101Z,100061.34
2022-09-21T23:11:31.778Z,100065.16
2022-09-21T23:13:59.135Z,100063.31
2022-09-21T23:16:27.389Z,100056.38
2022-09-21T23:18:55.312Z,100051.75
2022-09-21T23:21:23.866Z,100049.91
2022-09-21T23:23:54.877Z,100053.50
2022-09-21T23:26:26.157Z,100054.19
2022-09-21T23:28:54.366Z,100058.19
2022-09-21T23:31:21.978Z,100050.06
2022-09-21T23:33:50.060Z,100053.28
2022-09-21T23:36:18.188Z,100059.41
2022-09-21T23:38:46.514Z,100056.88
2022-09-21T23:41:13.672Z,100057.78
2022-09-21T23:43:41.468Z,100059.94
2022-09-21T23:46:09.555Z,100054.06
2022-09-21T23:48:36.838Z,100061.53
2022-09-21T23:51:04.272Z,100058.75
2022-09-21T23:53:32.029Z,100055.69
2022-09-21T23:55:59.310Z,100055.59
2022-09-21T23:58:26.925Z,100059.19
